Bentree, West Virginia
Current Conditions -  °F | °C
As of 10:54 AM on Thursday 23 Oct 2014 (Local Time) from KCRW Reporting Station
Overcast Overcast  
Wind Chill: 47°   Ceiling: 1100
Heat Index: 49°   Visibility: 10mi
Dew Point: 43°   Wind: 6mph
Humidity: 80%   Direction: NA
Pressure: 30.21"   Gusts: NA
Location:  38.28°N, 81.19°W
Report Text: KCRW 231454Z VRB05KT 10SM BKN011 OVC040 09/06 A3021 RMK AO2 SLP232 T00940061 50006
Loading
Personal Weather Stations






























Interactive Weather Map
Tropical Storm Tracking
New forecast layout! Learn more

10-Day Weather Forecast

Advertisements
Track Severe Weather on mobile